^^
Station Historical Data
Daily Summary for March 10, 2018 Units:  Metric    English   Both
« Previous Day
Next Day »
Daily Weekly Monthly Yearly Custom
  High: Low: Average:
Temperature: -17.8 °C 15 °C 20.8 °C
Dew Point: -17.8 °C -9 °C 0 °C
Humidity: Humidity% 8% 27%
Wind Speed: 0km/h 0km/h 7.4km/h
Wind Gust: 0km/h - -
Wind- - SSW
Pressure: 0 hPa 1005 hPa -
Precipitation: 0 mm    
Historical Graphs
 
 
Tabular Data for March 10, 2018
Time Temperature Dew Point Pressure Wind Wind Speed Wind Gust Humidity Rainfall Rate (Hourly) solar Conditions
-17.8 °C -17.8 °C 0 hPa Calm     Humidity% 0 mm SolarRadiationWatts/m^2 W/m2 Conditions
00:03 22.3 °C 2.9 °C 1007.3 hPa SSW 7.9 km/h 12.9 km/h 28% 0 mm 0.0 W/m2
00:08 22.1 °C 3.2 °C 1007.3 hPa SSW 9.7 km/h 14.5 km/h 29% 0 mm 0.0 W/m2
00:13 22 °C 3.1 °C 1007.7 hPa SSW 13 km/h 13 km/h 29% 0 mm 0.0 W/m2
00:23 21.8 °C 3.5 °C 1007.7 hPa SSW 13 km/h 16.1 km/h 30% 0 mm 0.0 W/m2
00:28 21.7 °C 3.4 °C 1007.7 hPa SSW 7.9 km/h 12.9 km/h 30% 0 mm 0.0 W/m2
00:34 21.5 °C 3.7 °C 1007.7 hPa SSW 11.1 km/h 14.5 km/h 31% 0 mm 0.0 W/m2
00:39 21.3 °C 3.5 °C 1007.7 hPa SSW 7.9 km/h 11.3 km/h 31% 0 mm 0.0 W/m2
00:44 21.2 °C 3.4 °C 1007.7 hPa SSW 6.4 km/h 9.7 km/h 31% 0 mm 0.0 W/m2
00:54 20.8 °C 3.5 °C 1007.3 hPa SSW 6.4 km/h 9.7 km/h 32% 0 mm 0.0 W/m2
00:59 20.6 °C 3.3 °C 1007.3 hPa SSW 6.4 km/h 8 km/h 32% 0 mm 0.0 W/m2
01:04 20.4 °C 3.1 °C 1007.3 hPa SSW 6.4 km/h 9.7 km/h 32% 0 mm 0.0 W/m2
01:14 20.1 °C 3.3 °C 1007.3 hPa SSW 6.4 km/h 8 km/h 33% 0 mm 0.0 W/m2
01:19 19.9 °C 3.1 °C 1007.3 hPa SSW 7.9 km/h 8 km/h 33% 0 mm 0.0 W/m2
01:24 19.8 °C 3.1 °C 1007.3 hPa SSW 6.4 km/h 9.7 km/h 33% 0 mm 0.0 W/m2
01:29 19.9 °C 3.1 °C 1007.3 hPa SSW 7.9 km/h 9.7 km/h 33% 0 mm 0.0 W/m2
01:34 19.9 °C 3.1 °C 1007.3 hPa SSW 6.4 km/h 11.3 km/h 33% 0 mm 0.0 W/m2
01:40 19.8 °C 3.1 °C 1007.3 hPa SSW 6.4 km/h 9.7 km/h 33% 0 mm 0.0 W/m2
01:45 19.7 °C 3 °C 1007.3 hPa SSW 7.9 km/h 8 km/h 33% 0 mm 0.0 W/m2
01:50 19.6 °C 2.9 °C 1007.3 hPa SSW 7.9 km/h 9.7 km/h 33% 0 mm 0.0 W/m2
01:55 19.4 °C 3.1 °C 1007.3 hPa SSW 7.9 km/h 9.7 km/h 34% 0 mm 0.0 W/m2
02:00 19.4 °C 3.1 °C 1007.3 hPa SSW 7.9 km/h 8 km/h 34% 0 mm 0.0 W/m2
02:05 19.4 °C 3.1 °C 1007.3 hPa SSW 6.4 km/h 8 km/h 34% 0 mm 0.0 W/m2
02:10 19.3 °C 3 °C 1007.3 hPa SSW 3.2 km/h 6.4 km/h 34% 0 mm 0.0 W/m2
02:16 19.2 °C 3 °C 1007.3 hPa Calm     34% 0 mm 0.0 W/m2
02:21 19.1 °C 2.9 °C 1007.3 hPa Calm     34% 0 mm 0.0 W/m2
02:26 18.9 °C 3.1 °C 1007.3 hPa Calm     35% 0 mm 0.0 W/m2
02:32 18.8 °C 3 °C 1007.3 hPa Calm     35% 0 mm 0.0 W/m2
02:37 18.6 °C 2.8 °C 1007.3 hPa Calm     35% 0 mm 0.0 W/m2
02:43 18.6 °C 2.8 °C 1007.3 hPa Calm     35% 0 mm 0.0 W/m2
02:48 18.5 °C 2.7 °C 1007 hPa Calm     35% 0 mm 0.0 W/m2
02:53 18.5 °C 2.7 °C 1007 hPa Calm     35% 0 mm 0.0 W/m2
03:03 18.1 °C 2.8 °C 1007 hPa Calm     36% 0 mm 0.0 W/m2
03:09 17.7 °C 2.4 °C 1007 hPa Calm     36% 0 mm 0.0 W/m2
03:14 17.3 °C 2.5 °C 1007 hPa Calm     37% 0 mm 0.0 W/m2
03:19 17.1 °C 2.7 °C 1007 hPa Calm     38% 0 mm 0.0 W/m2
03:25 16.9 °C 2.5 °C 1007 hPa Calm     38% 0 mm 0.0 W/m2
03:35 16.8 °C 2.4 °C 1007 hPa Calm     38% 0 mm 0.0 W/m2
03:40 16.7 °C 2.3 °C 1007 hPa Calm     38% 0 mm 0.0 W/m2
03:45 16.7 °C 2.3 °C 1007 hPa Calm     38% 0 mm 0.0 W/m2
03:50 16.7 °C 2.3 °C 1007 hPa Calm     38% 0 mm 0.0 W/m2
03:56 16.9 °C 2.1 °C 1007 hPa Calm     37% 0 mm 0.0 W/m2
04:01 17.1 °C 2.3 °C 1007 hPa Calm     37% 0 mm 0.0 W/m2
04:11 17.2 °C 2 °C 1007 hPa Calm     36% 0 mm 0.0 W/m2
04:16 17.2 °C 2.4 °C 1007 hPa Calm     37% 0 mm 0.0 W/m2
04:21 17 °C 2.2 °C 1007 hPa Calm     37% 0 mm 0.0 W/m2
04:27 16.9 °C 1.7 °C 1006.7 hPa Calm     36% 0 mm 0.0 W/m2
04:37 16.7 °C 1.6 °C 1006.7 hPa Calm     36% 0 mm 0.0 W/m2
04:42 16.6 °C 1.8 °C 1006.7 hPa Calm     37% 0 mm 0.0 W/m2
04:47 16.4 °C 2 °C 1006.7 hPa Calm     38% 0 mm 0.0 W/m2
04:54 16.3 °C 2 °C 1006.7 hPa Calm     38% 0 mm 0.0 W/m2
05:04 16 °C 1.7 °C 1006.7 hPa Calm     38% 0 mm 0.0 W/m2
05:09 15.8 °C 1.9 °C 1006.7 hPa Calm     39% 0 mm 0.0 W/m2
05:14 15.5 °C 1.6 °C 1007 hPa Calm     39% 0 mm 0.0 W/m2
05:19 15.4 °C 1.5 °C 1007 hPa Calm     39% 0 mm 0.0 W/m2
05:24 15.3 °C 1.4 °C 1007 hPa Calm     39% 0 mm 0.0 W/m2
05:30 15.2 °C 1.3 °C 1007 hPa Calm     39% 0 mm 0.0 W/m2
05:35 15.2 °C 1 °C 1007 hPa Calm     38% 0 mm 0.0 W/m2
05:40 15.3 °C 1.1 °C 1007 hPa Calm     38% 0 mm 0.0 W/m2
05:45 15.3 °C 1.1 °C 1007 hPa Calm     38% 0 mm 0.0 W/m2
05:51 15.1 °C 1.2 °C 1007.3 hPa Calm     39% 0 mm 0.0 W/m2
05:56 15 °C 1.2 °C 1007.3 hPa Calm     39% 0 mm 0.0 W/m2
06:01 15 °C 1.2 °C 1007.3 hPa Calm     39% 0 mm 0.0 W/m2
06:07 15 °C 1.2 °C 1007.3 hPa Calm     39% 0 mm 0.0 W/m2
06:12 15.2 °C 2 °C 1007.3 hPa SSW 4.7 km/h 8 km/h 41% 0 mm 0.0 W/m2
06:22 16 °C 2.4 °C 1007.7 hPa SSW 7.9 km/h 9.7 km/h 40% 0 mm 0.0 W/m2
06:38 15.9 °C 2.3 °C 1007.7 hPa SSW 1.4 km/h 4.8 km/h 40% 0 mm 0.0 W/m2
06:47 15.6 °C 2 °C 1008 hPa Calm     40% 0 mm 5.0 W/m2
06:52 15.5 °C 2.3 °C 1008 hPa Calm     41% 0 mm 7.0 W/m2
06:58 15.3 °C 2.1 °C 1008 hPa Calm     41% 0 mm 11.0 W/m2
07:09 15.3 °C 2.8 °C 1008 hPa Calm     43% 0 mm 21.0 W/m2
07:17 15.5 °C 2.6 °C 1008 hPa Calm     42% 0 mm 32.0 W/m2
07:29 15.8 °C 2.9 °C 1008 hPa Calm     42% 0 mm 62.0 W/m2
07:44 16.5 °C 2.5 °C 1008 hPa Calm     39% 0 mm 125.0 W/m2
08:08 18.1 °C 2.4 °C 1008 hPa Calm     35% 0 mm 241.0 W/m2
08:50 20.6 °C -0.7 °C 1008 hPa SSW 14.3 km/h 16.1 km/h 24% 0 mm 388.0 W/m2
09:05 21.1 °C 0.3 °C 1008 hPa SSW 13 km/h 16.1 km/h 25% 0 mm 443.0 W/m2
09:15 21.4 °C 0.6 °C 1008 hPa SSW 14.3 km/h 16.1 km/h 25% 0 mm 476.0 W/m2
09:30 22 °C -0.7 °C 1008.4 hPa SSW 11.1 km/h 20.9 km/h 22% 0 mm 531.0 W/m2
10:10 23.2 °C -1 °C 1008 hPa SSW 9.7 km/h 17.7 km/h 20% 0 mm 654.0 W/m2
10:21 23.6 °C -1.4 °C 1008 hPa SSW 7.9 km/h 14.5 km/h 19% 0 mm 680.0 W/m2
10:36 24.5 °C -2.2 °C 1008 hPa SSW 11.1 km/h 16.1 km/h 17% 0 mm 714.0 W/m2
10:49 24.9 °C -3.5 °C 1008 hPa SSW 11.1 km/h 11.3 km/h 15% 0 mm 758.0 W/m2
11:00 25.3 °C -3.2 °C 1008 hPa SSW 9.7 km/h 12.9 km/h 15% 0 mm 780.0 W/m2
11:46 26.7 °C -4 °C 1007 hPa SSW 9.7 km/h 16.1 km/h 13% 0 mm 925.0 W/m2
11:54 27.1 °C -3.7 °C 1007 hPa SSW 14.3 km/h 17.7 km/h 13% 0 mm 970.0 W/m2
12:04 27.3 °C -3.5 °C 1007 hPa SW 3.2 km/h 17.7 km/h 13% 0 mm 668.0 W/m2
12:14 27.6 °C -3.3 °C 1007 hPa SW 7.9 km/h 14.5 km/h 13% 0 mm 956.0 W/m2
12:24 27.9 °C -3.1 °C 1006.7 hPa SW 13 km/h 16.1 km/h 13% 0 mm 972.0 W/m2
12:35 28.3 °C -3.8 °C 1006.7 hPa SW 14.3 km/h 16.1 km/h 12% 0 mm 974.0 W/m2
12:46 28.3 °C -3.8 °C 1006.7 hPa SW 11.1 km/h 17.7 km/h 12% 0 mm 1025.0 W/m2
12:57 28.2 °C -3.9 °C 1006.7 hPa SW 9.7 km/h 17.7 km/h 12% 0 mm 1067.0 W/m2
13:27 27.8 °C -4.2 °C 1006.3 hPa SW 9.7 km/h 14.5 km/h 12% 0 mm 376.0 W/m2
13:42 28.2 °C -5.1 °C 1006.3 hPa SSW 6.4 km/h 20.9 km/h 11% 0 mm 821.0 W/m2
14:12 28.1 °C -5.1 °C 1006 hPa SSW 7.9 km/h 16.1 km/h 11% 0 mm 548.0 W/m2
14:23 28.5 °C -6.1 °C 1006 hPa SW 14.3 km/h 17.7 km/h 10% 0 mm 923.0 W/m2
14:33 28.8 °C -5.9 °C 1005.6 hPa SSW 7.9 km/h 17.7 km/h 10% 0 mm 810.0 W/m2
14:58 28.7 °C -5.9 °C 1005.3 hPa SSW 14.3 km/h 14.5 km/h 10% 0 mm 705.0 W/m2
15:08 29 °C -5.7 °C 1005 hPa Calm   14.5 km/h 10% 0 mm 809.0 W/m2
15:19 29.3 °C -6.9 °C 1005 hPa SW 13 km/h 22.5 km/h 9% 0 mm 396.0 W/m2
15:33 28.9 °C -7.2 °C 1005 hPa SW 14.3 km/h 16.1 km/h 9% 0 mm 359.0 W/m2
15:43 28.8 °C -7.2 °C 1005 hPa SW 9.7 km/h 11.3 km/h 9% 0 mm 336.0 W/m2
15:53 28.9 °C -8.7 °C 1005 hPa SSW 9.7 km/h 12.9 km/h 8% 0 mm 306.0 W/m2
16:13 29 °C -8.6 °C 1005 hPa SSW 16.3 km/h 16.3 km/h 8% 0 mm 334.0 W/m2
16:23 28.7 °C -8.8 °C 1005 hPa SSW 14.3 km/h 19.3 km/h 8% 0 mm 246.0 W/m2
16:34 28.6 °C -8.9 °C 1005 hPa SSW 7.9 km/h 17.7 km/h 8% 0 mm 246.0 W/m2
16:49 28.4 °C -9 °C 1005 hPa SSW 14.3 km/h 19.3 km/h 8% 0 mm 174.0 W/m2
17:59 28.3 °C -7.6 °C 1005 hPa SSW 16.3 km/h 30.6 km/h 9% 0 mm 320.0 W/m2
18:23 27.8 °C -6.6 °C 1005.3 hPa SSW 19.5 km/h 24.1 km/h 10% 0 mm 128.0 W/m2
18:30 27.4 °C -6.9 °C 1005.3 hPa SSW 14.3 km/h 22.5 km/h 10% 0 mm 81.0 W/m2
18:35 27.4 °C -6.9 °C 1005.3 hPa SSW 14.3 km/h 22.5 km/h 10% 0 mm 63.0 W/m2
18:46 27.1 °C -7.1 °C 1005.3 hPa SSW 20.9 km/h 22.5 km/h 10% 0 mm 30.0 W/m2
18:52 26.9 °C -7.3 °C 1005.3 hPa SSW 16.3 km/h 24.1 km/h 10% 0 mm 19.0 W/m2
19:15 26.2 °C -6.6 °C 1005.6 hPa SSW 16.3 km/h 24.1 km/h 11% 0 mm 5.0 W/m2
19:30 25.6 °C -5.9 °C 1005.6 hPa SSW 13 km/h 22.5 km/h 12% 0 mm 0.0 W/m2
19:59 24.7 °C -1.2 °C 1006.3 hPa SSW 17.7 km/h 27.4 km/h 18% 0 mm 0.0 W/m2
20:26 23.9 °C -1.1 °C 1006.7 hPa SSW 22.7 km/h 22.7 km/h 19% 0 mm 0.0 W/m2
20:38 23.7 °C -1.3 °C 1006.7 hPa SSW 16.3 km/h 17.7 km/h 19% 0 mm 0.0 W/m2
20:46 23.5 °C -1.5 °C 1007 hPa SSW 14.3 km/h 20.9 km/h 19% 0 mm 0.0 W/m2
20:51 23.4 °C -1.5 °C 1007 hPa SSW 11.1 km/h 19.3 km/h 19% 0 mm 0.0 W/m2
20:56 23.2 °C -1 °C 1007.3 hPa SSW 22.7 km/h 22.7 km/h 20% 0 mm 0.0 W/m2
21:01 23.1 °C 0.2 °C 1007.3 hPa SSW 11.1 km/h 19.3 km/h 22% 0 mm 0.0 W/m2
21:06 22.8 °C 0.6 °C 1007.3 hPa SSW 11.1 km/h 14.5 km/h 23% 0 mm 0.0 W/m2
21:11 22.6 °C 1 °C 1007.7 hPa SSW 13 km/h 17.7 km/h 24% 0 mm 0.0 W/m2
21:21 22.3 °C 1.9 °C 1007.7 hPa SSW 17.7 km/h 20.9 km/h 26% 0 mm 0.0 W/m2
21:27 22.2 °C 2.3 °C 1007.7 hPa SSW 17.7 km/h 17.7 km/h 27% 0 mm 0.0 W/m2
21:32 22 °C 2.1 °C 1008 hPa SSW 14.3 km/h 19.3 km/h 27% 0 mm 0.0 W/m2
21:37 21.8 °C 2.5 °C 1008 hPa SSW 11.1 km/h 22.5 km/h 28% 0 mm 0.0 W/m2
21:43 21.6 °C 2.3 °C 1008 hPa SSW 9.7 km/h 14.5 km/h 28% 0 mm 0.0 W/m2
21:49 21.5 °C 2.2 °C 1008 hPa SSW 14.3 km/h 16.1 km/h 28% 0 mm 0.0 W/m2
22:01 21.2 °C 2.5 °C 1008.4 hPa SSW 17.7 km/h 17.7 km/h 29% 0 mm 0.0 W/m2
22:21 20.8 °C 2.1 °C 1008.7 hPa SSW 7.9 km/h 12.9 km/h 29% 0 mm 0.0 W/m2
22:28 20.6 °C 1.9 °C 1008.7 hPa SSW 11.1 km/h 14.5 km/h 29% 0 mm 0.0 W/m2
22:37 20.5 °C 1.9 °C 1008.7 hPa SSW 11.1 km/h 16.1 km/h 29% 0 mm 0.0 W/m2
22:42 20.4 °C 1.8 °C 1009 hPa SSW 13 km/h 16.1 km/h 29% 0 mm 0.0 W/m2
22:47 20.3 °C 1.7 °C 1009 hPa SSW 13 km/h 16.1 km/h 29% 0 mm 0.0 W/m2
22:57 20.1 °C 1.5 °C 1009 hPa SSW 9.7 km/h 14.5 km/h 29% 0 mm 0.0 W/m2
23:02 19.9 °C 1.3 °C 1009 hPa SSW 11.1 km/h 12.9 km/h 29% 0 mm 0.0 W/m2
23:07 19.8 °C 1.2 °C 1009 hPa SSW 7.9 km/h 12.9 km/h 29% 0 mm 0.0 W/m2
23:12 19.8 °C 1.2 °C 1009 hPa SSW 11.1 km/h 17.7 km/h 29% 0 mm 0.0 W/m2
23:18 19.8 °C 1.2 °C 1009 hPa SSW 9.7 km/h 14.5 km/h 29% 0 mm 0.0 W/m2
23:27 19.6 °C 1.5 °C 1009 hPa SSW 11.1 km/h 14.5 km/h 30% 0 mm 0.0 W/m2
23:33 19.5 °C 1.9 °C 1009 hPa SSW 11.1 km/h 16.1 km/h 31% 0 mm 0.0 W/m2
23:38 19.4 °C 1.8 °C 1009 hPa SSW 11.1 km/h 20.9 km/h 31% 0 mm 0.0 W/m2
23:43 19.4 °C 1.4 °C 1009.4 hPa SSW 9.7 km/h 16.1 km/h 30% 0 mm 0.0 W/m2
23:53 19.2 °C 1.7 °C 1009.4 hPa SSW 14.3 km/h 17.7 km/h 31% 0 mm 0.0 W/m2
23:58 19.1 °C 1.1 °C 1009.4 hPa SSW 9.7 km/h 17.7 km/h 30% 0 mm 0.0 W/m2
Canyon Roadhouse, Fishriver Canyon, Namibia
Compliments of Weather Underground - 2.5 mb